Time;durP1;ratioP1;P1;durP2;ratioP2;P2;SDS_P1;SDS_P2;PMS_P1;PMS_P2;Temp;Humidity;BMP_temperature;BMP_pressure;BME280_temperature;BME280_humidity;BME280_pressure;Samples;Min_cycle;Max_cycle;Signal;HPM_P1;HPM_P2
2021/12/22 00:02:13;;;;;;;;;;;;;;;-1.66;100.00;102085.50;5012928;28;1330;-73
2021/12/22 00:04:44;;;;;;;;;;;;;;;-1.65;100.00;102088.16;4995678;28;1150;-72
2021/12/22 00:07:12;;;;;;;;;;;;;;;-1.69;100.00;102086.41;5012879;28;840;-72
2021/12/22 00:09:39;;;;;;;;;;;;;;;-1.74;100.00;102085.56;5012832;28;781;-73
2021/12/22 00:12:05;;;;;;;;;;;;;;;-1.76;100.00;102093.56;5012891;28;1375;-72
2021/12/22 00:14:32;;;;;;;;;;;;;;;-1.81;100.00;102091.84;4994769;28;978;-73
2021/12/22 00:16:58;;;;;;;;;;;;;;;-1.73;100.00;102095.31;4994930;28;1027;-70
2021/12/22 00:19:24;;;;;;;;;;;;;;;-1.67;100.00;102084.63;5012592;28;1969;-71
2021/12/22 00:21:50;;;;;;;;;;;;;;;-1.62;100.00;102093.44;5043583;22;3604;-76
2021/12/22 00:24:18;;;;;;;;;;;;;;;-1.56;100.00;102090.75;5051976;28;769;-75
2021/12/22 00:26:44;;;;;;;;;;;;;;;-1.55;100.00;102094.28;5033514;28;1145;-75
2021/12/22 00:29:12;;;;;;;;;;;;;;;-1.60;100.00;102091.66;5051848;28;1037;-76
2021/12/22 00:31:43;;;;;;;;;;;;;;;-1.57;100.00;102088.09;5055201;28;1424;-76
2021/12/22 00:34:15;;;;;;;;;;;;;;;-1.55;100.00;102095.19;5037488;28;1136;-76
2021/12/22 00:36:42;;;;;;;;;;;;;;;-1.49;100.00;102094.22;5073498;28;883;-76
2021/12/22 00:39:08;;;;;;;;;;;;;;;-1.46;100.00;102093.31;5073609;28;1914;-77
2021/12/22 00:41:36;;;;;;;;;;;;;;;-1.43;100.00;102096.84;5072164;28;1313;-76
2021/12/22 00:44:02;;;;;;;;;;;;;;;-1.47;100.00;102092.44;5071986;28;1061;-76
2021/12/22 00:46:29;;;;;;;;;;;;;;;-1.50;100.00;102103.09;5071125;28;986;-76
2021/12/22 00:48:55;;;;;;;;;;;;;;;-1.46;100.00;102104.84;5071522;28;1155;-78
2021/12/22 00:51:21;;;;;;;;;;;;;;;-1.46;100.00;102102.19;5072006;28;1297;-76
2021/12/22 00:53:47;;;;;;;;;;;;;;;-1.43;100.00;102101.28;5055678;28;896;-76
2021/12/22 00:56:14;;;;;;;;;;;;;;;-1.49;100.00;102101.34;5072828;28;998;-76
2021/12/22 00:58:41;;;;;;;;;;;;;;;-1.49;100.00;102102.22;5073296;28;1977;-77
2021/12/22 01:01:08;;;;;;;;;;;;;;;-1.51;100.00;102106.66;5071865;28;966;-75
2021/12/22 01:03:35;;;;;;;;;;;;;;;-1.60;100.00;102106.78;5053099;28;1306;-77
2021/12/22 01:06:01;;;;;;;;;;;;;;;-1.64;100.00;102103.25;5054202;28;1180;-77
2021/12/22 01:08:27;;;;;;;;;;;;;;;-1.62;100.00;102113.88;5057033;28;1551;-77
2021/12/22 01:10:54;;;;;;;;;;;;;;;-1.60;100.00;102107.66;5051642;28;994;-77
2021/12/22 01:13:20;;;;;;;;;;;;;;;-1.67;100.00;102111.25;5033393;28;1373;-76
2021/12/22 01:15:48;;;;;;;;;;;;;;;-1.76;100.00;102104.22;5050869;28;1061;-76
2021/12/22 01:18:25;;;;;;;;;;;;;;;-1.74;100.00;102109.53;5051173;28;971;-77
2021/12/22 01:21:01;;;;;;;;;;;;;;;-1.77;100.00;102104.25;5051105;28;1981;-77
2021/12/22 01:23:33;;;;;;;;;;;;;;;-1.77;100.00;102104.25;5032438;28;1432;-76
2021/12/22 01:25:59;;;;;;;;;;;;;;;-1.70;100.00;102112.16;5032717;28;962;-77
2021/12/22 01:28:27;;;;;;;;;;;;;;;-1.69;100.00;102105.06;5050835;28;1041;-77
2021/12/22 01:31:01;;;;;;;;;;;;;;;-1.65;100.00;102101.47;5033048;28;1284;-76
2021/12/22 01:33:27;;;;;;;;;;;;;;;-1.64;100.00;102095.25;5050719;28;1415;-76
2021/12/22 01:35:53;;;;;;;;;;;;;;;-1.62;100.00;102093.44;5032603;28;999;-77
2021/12/22 01:38:20;;;;;;;;;;;;;;;-1.58;100.00;102091.66;5050554;28;876;-76
2021/12/22 01:40:46;;;;;;;;;;;;;;;-1.55;100.00;102100.50;5050896;28;1981;-77
2021/12/22 01:43:14;;;;;;;;;;;;;;;-1.55;100.00;102105.81;5052207;28;1287;-76
2021/12/22 01:46:07;;;;;;;;;;;;;;;-1.57;100.00;102096.94;5051524;28;772;-76
2021/12/22 01:51:31;;;;;;;;;;;;;;;-1.61;100.00;102105.88;5052565;28;1340;-76
2021/12/22 01:53:58;;;;;;;;;;;;;;;-1.62;100.00;102100.56;5052610;28;916;-76
2021/12/22 01:56:27;;;;;;;;;;;;;;;-1.56;100.00;102105.84;5069989;28;792;-76
2021/12/22 01:58:54;;;;;;;;;;;;;;;-1.58;100.00;102110.28;5052448;28;1983;-75
2021/12/22 02:01:21;;;;;;;;;;;;;;;-1.58;100.00;102104.97;5070170;28;1369;-75
2021/12/22 02:03:50;;;;;;;;;;;;;;;-1.55;100.00;102110.25;5070461;28;895;-75
2021/12/22 02:06:17;;;;;;;;;;;;;;;-1.53;100.00;102112.00;5052221;28;1061;-76
2021/12/22 02:08:44;;;;;;;;;;;;;;;-1.52;100.00;102105.78;5070350;28;987;-76
2021/12/22 02:11:11;;;;;;;;;;;;;;;-1.46;100.00;102109.31;5070844;28;812;-75
2021/12/22 02:13:40;;;;;;;;;;;;;;;-1.50;100.00;102102.25;5070993;28;1393;-75
2021/12/22 02:16:09;;;;;;;;;;;;;;;-1.61;100.00;102099.66;5052221;28;927;-75
2021/12/22 02:18:36;;;;;;;;;;;;;;;-1.59;100.00;102098.75;5070512;28;934;-75
2021/12/22 02:21:04;;;;;;;;;;;;;;;-1.58;100.00;102100.50;5070596;28;1914;-75
2021/12/22 02:23:30;;;;;;;;;;;;;;;-1.62;100.00;102101.44;5070482;28;1285;-76
2021/12/22 02:26:01;;;;;;;;;;;;;;;-1.59;100.00;102104.09;5035827;28;976;-75
2021/12/22 02:28:32;;;;;;;;;;;;;;;-1.50;100.00;102105.78;5052538;28;1045;-75
2021/12/22 02:30:58;;;;;;;;;;;;;;;-1.47;100.00;102102.19;5052806;28;974;-75
2021/12/22 02:33:33;;;;;;;;;;;;;;;-1.44;100.00;102094.16;5070308;28;1314;-76
2021/12/22 02:36:11;;;;;;;;;;;;;;;-1.46;100.00;102093.31;5053325;28;1482;-76
2021/12/22 02:38:40;;;;;;;;;;;;;;;-1.39;100.00;102093.25;5074676;28;919;-75
2021/12/22 02:41:09;;;;;;;;;;;;;;;-1.42;100.00;102092.38;5056716;28;1979;-75
2021/12/22 02:43:42;;;;;;;;;;;;;;;-1.44;100.00;102092.41;5074512;28;1259;-74
2021/12/22 02:46:09;;;;;;;;;;;;;;;-1.45;100.00;102089.75;5074132;28;983;-76
2021/12/22 02:48:35;;;;;;;;;;;;;;;-1.41;100.00;102086.19;5074481;28;1146;-75
2021/12/22 02:51:02;;;;;;;;;;;;;;;-1.45;100.00;102095.97;5074703;28;1029;-74
2021/12/22 02:53:38;;;;;;;;;;;;;;;-1.39;100.00;102090.59;5056104;28;1344;-75
2021/12/22 02:56:14;;;;;;;;;;;;;;;-1.35;100.00;102097.66;5048615;28;1203;-75
2021/12/22 02:58:48;;;;;;;;;;;;;;;-1.35;100.00;102097.66;5073924;28;1202;-76
2021/12/22 03:01:28;;;;;;;;;;;;;;;-1.38;100.00;102097.69;5056360;28;1910;-75
2021/12/22 03:03:58;;;;;;;;;;;;;;;-1.35;100.00;102097.66;5056196;28;816;-74
2021/12/22 03:06:32;;;;;;;;;;;;;;;-1.33;100.00;102094.09;5074038;28;841;-75
2021/12/22 03:08:58;;;;;;;;;;;;;;;-1.35;100.00;102096.75;5054960;28;1475;-75
2021/12/22 03:11:26;;;;;;;;;;;;;;;-1.34;100.00;102093.19;5056462;28;1310;-75
2021/12/22 03:13:53;;;;;;;;;;;;;;;-1.34;100.00;102087.88;5073734;28;931;-75
2021/12/22 03:16:19;;;;;;;;;;;;;;;-1.35;100.00;102086.09;5039378;28;1157;-77
2021/12/22 03:18:46;;;;;;;;;;;;;;;-1.35;100.00;102086.09;5073818;28;836;-74
2021/12/22 03:21:19;;;;;;;;;;;;;;;-1.29;100.00;102085.19;5055821;28;1914;-76
2021/12/22 03:23:46;;;;;;;;;;;;;;;-1.24;100.00;102084.22;5073970;28;836;-77
2021/12/22 03:26:14;;;;;;;;;;;;;;;-1.16;100.00;102080.56;5073649;28;776;-75
2021/12/22 03:28:41;;;;;;;;;;;;;;;-1.14;100.00;102078.78;5073563;28;975;-75
2021/12/22 03:31:08;;;;;;;;;;;;;;;-1.14;100.00;102076.13;5055723;28;1155;-75
2021/12/22 03:33:34;;;;;;;;;;;;;;;-1.12;100.00;102079.66;5073141;28;1305;-74
2021/12/22 03:36:00;;;;;;;;;;;;;;;-1.21;100.00;102075.31;5073750;28;989;-75
2021/12/22 03:38:27;;;;;;;;;;;;;;;-1.17;100.00;102071.72;5055479;28;1168;-75
2021/12/22 03:40:53;;;;;;;;;;;;;;;-1.16;100.00;102081.47;5073812;28;1976;-75
2021/12/22 03:43:19;;;;;;;;;;;;;;;-1.12;100.00;102071.66;5055612;28;1410;-75
2021/12/22 03:45:47;;;;;;;;;;;;;;;-1.17;100.00;102079.72;5073607;28;946;-76
2021/12/22 03:48:16;;;;;;;;;;;;;;;-1.21;100.00;102075.31;5073397;28;1001;-75
2021/12/22 03:50:43;;;;;;;;;;;;;;;-1.22;100.00;102071.75;5053651;28;961;-75
2021/12/22 03:53:09;;;;;;;;;;;;;;;-1.20;100.00;102067.28;5054526;28;1320;-76
2021/12/22 03:55:35;;;;;;;;;;;;;;;-1.19;100.00;102070.84;5053608;28;927;-75
2021/12/22 03:58:01;;;;;;;;;;;;;;;-1.13;100.00;102064.56;5053655;28;783;-75
2021/12/22 04:00:29;;;;;;;;;;;;;;;-1.11;100.00;102060.09;5053730;28;1906;-75
2021/12/22 04:02:57;;;;;;;;;;;;;;;-1.10;100.00;102060.06;5053493;28;1346;-75
2021/12/22 04:05:24;;;;;;;;;;;;;;;-1.06;100.00;102066.25;5053698;28;1061;-75
2021/12/22 04:07:50;;;;;;;;;;;;;;;-1.03;100.00;102055.56;5035195;28;915;-76
2021/12/22 04:10:23;;;;;;;;;;;;;;;-1.01;100.00;102061.75;5035132;28;1101;-75
2021/12/22 04:12:52;;;;;;;;;;;;;;;-0.96;100.00;102059.94;5053084;28;1316;-74
2021/12/22 04:15:18;;;;;;;;;;;;;;;-0.96;100.00;102059.94;5053222;28;986;-74
2021/12/22 04:17:45;;;;;;;;;;;;;;;-1.01;100.00;102053.75;5052714;28;800;-76
2021/12/22 04:20:13;;;;;;;;;;;;;;;-1.01;100.00;102049.31;5035306;28;2337;-75
2021/12/22 04:22:39;;;;;;;;;;;;;;;-1.04;100.00;102053.81;5052682;28;1418;-74
2021/12/22 04:25:07;;;;;;;;;;;;;;;-1.08;100.00;102058.28;5052834;28;1006;-75
2021/12/22 04:27:33;;;;;;;;;;;;;;;-1.13;100.00;102052.13;5052908;28;1098;-76
2021/12/22 04:30:00;;;;;;;;;;;;;;;-1.23;100.00;102047.78;5053281;28;804;-76
2021/12/22 04:32:26;;;;;;;;;;;;;;;-1.23;100.00;102037.13;5053356;28;1301;-76
2021/12/22 04:34:52;;;;;;;;;;;;;;;-1.26;100.00;102039.84;5035505;28;1051;-76
2021/12/22 04:37:20;;;;;;;;;;;;;;;-1.30;100.00;102044.31;5052493;28;1022;-75
2021/12/22 04:39:46;;;;;;;;;;;;;;;-1.33;100.00;102040.81;5052635;28;1981;-76
2021/12/22 04:42:14;;;;;;;;;;;;;;;-1.44;100.00;102043.56;5034839;28;1333;-76
2021/12/22 04:44:41;;;;;;;;;;;;;;;-1.42;100.00;102044.44;5034667;28;1002;-75
2021/12/22 04:47:07;;;;;;;;;;;;;;;-1.43;100.00;102055.97;5052190;28;924;-75
2021/12/22 04:49:33;;;;;;;;;;;;;;;-1.44;100.00;102043.56;5062852;28;1262;-77
2021/12/22 04:52:02;;;;;;;;;;;;;;;-1.45;100.00;102052.47;5054868;28;1297;-76
2021/12/22 04:54:42;;;;;;;;;;;;;;;-1.45;100.00;102049.81;5049504;28;1507;-76
2021/12/22 04:57:08;;;;;;;;;;;;;;;-1.45;100.00;102049.81;5054276;28;1397;-75
2021/12/22 04:59:34;;;;;;;;;;;;;;;-1.47;100.00;102046.25;5069027;28;1693;-74
2021/12/22 05:02:01;;;;;;;;;;;;;;;-1.44;100.00;102044.47;5072087;28;1990;-75
2021/12/22 05:04:27;;;;;;;;;;;;;;;-1.44;100.00;102043.56;5062157;28;1569;-76
2021/12/22 05:06:53;;;;;;;;;;;;;;;-1.43;100.00;102045.34;5053009;28;1599;-73
2021/12/22 05:09:19;;;;;;;;;;;;;;;-1.45;100.00;102045.34;5059156;28;1525;-75
2021/12/22 05:11:47;;;;;;;;;;;;;;;-1.48;100.00;102050.72;5070798;28;1302;-74
2021/12/22 05:14:13;;;;;;;;;;;;;;;-1.50;100.00;102047.16;5070513;28;1599;-75
2021/12/22 05:16:45;;;;;;;;;;;;;;;-1.49;100.00;102050.75;5059405;28;1494;-73
2021/12/22 05:19:14;;;;;;;;;;;;;;;-1.48;100.00;102053.38;5071700;28;840;-73
2021/12/22 05:21:41;;;;;;;;;;;;;;;-1.47;100.00;102054.25;5059677;28;1972;-72
2021/12/22 05:24:07;;;;;;;;;;;;;;;-1.46;100.00;102056.03;5034251;28;761;-76
2021/12/22 05:26:33;;;;;;;;;;;;;;;-1.45;100.00;102056.00;5035464;28;1454;-77
2021/12/22 05:29:01;;;;;;;;;;;;;;;-1.44;100.00;102054.22;5067979;28;1555;-76
2021/12/22 05:31:27;;;;;;;;;;;;;;;-1.52;100.00;102056.97;5074027;28;1403;-77
2021/12/22 05:33:54;;;;;;;;;;;;;;;-1.50;100.00;102048.97;5071150;28;1509;-76
2021/12/22 05:36:20;;;;;;;;;;;;;;;-1.45;100.00;102053.34;5055310;28;1560;-77
2021/12/22 05:38:47;;;;;;;;;;;;;;;-1.46;100.00;102050.69;5051609;28;1493;-75
2021/12/22 05:41:13;;;;;;;;;;;;;;;-1.45;100.00;102049.81;5033545;28;1910;-74
2021/12/22 05:43:39;;;;;;;;;;;;;;;-1.48;100.00;102049.81;5057429;28;1573;-74
2021/12/22 05:46:07;;;;;;;;;;;;;;;-1.50;100.00;102046.31;5053363;28;1002;-75
2021/12/22 05:48:33;;;;;;;;;;;;;;;-1.55;100.00;102047.22;5071234;28;1038;-76
2021/12/22 05:51:01;;;;;;;;;;;;;;;-1.52;100.00;102046.31;5053704;28;1054;-74
2021/12/22 05:53:28;;;;;;;;;;;;;;;-1.50;100.00;102051.63;5068600;28;1471;-75
2021/12/22 05:55:55;;;;;;;;;;;;;;;-1.48;100.00;102049.81;5067515;28;1228;-76
2021/12/22 05:58:22;;;;;;;;;;;;;;;-1.59;100.00;102040.19;5070152;28;899;-74
2021/12/22 06:00:48;;;;;;;;;;;;;;;-1.62;100.00;102036.66;5070731;28;1918;-75
2021/12/22 06:03:16;;;;;;;;;;;;;;;-1.64;100.00;102041.09;5055851;28;1419;-74
2021/12/22 06:05:42;;;;;;;;;;;;;;;-1.65;100.00;102040.22;5071036;28;1002;-76
2021/12/22 06:08:09;;;;;;;;;;;;;;;-1.66;100.00;102038.44;5053276;28;1225;-75
2021/12/22 06:10:36;;;;;;;;;;;;;;;-1.64;100.00;102039.31;5070495;28;815;-75
2021/12/22 06:13:02;;;;;;;;;;;;;;;-1.66;100.00;102051.75;5071186;28;1393;-76
2021/12/22 06:15:28;;;;;;;;;;;;;;;-1.67;100.00;102041.13;5071032;28;1049;-76
2021/12/22 06:17:57;;;;;;;;;;;;;;;-1.69;100.00;102046.47;5052672;28;971;-75
2021/12/22 06:20:25;;;;;;;;;;;;;;;-1.66;100.00;102048.22;5070786;28;1981;-74
2021/12/22 06:22:51;;;;;;;;;;;;;;;-1.61;100.00;102038.41;5081889;22;3858;-74
2021/12/22 06:25:17;;;;;;;;;;;;;;;-1.59;100.00;102050.81;5051345;28;884;-75
2021/12/22 06:27:44;;;;;;;;;;;;;;;-1.53;100.00;102052.53;5050451;28;942;-77
2021/12/22 06:30:10;;;;;;;;;;;;;;;-1.50;100.00;102049.84;5051102;28;915;-76
2021/12/22 06:32:37;;;;;;;;;;;;;;;-1.52;100.00;102060.50;5050823;28;1415;-75
2021/12/22 06:35:04;;;;;;;;;;;;;;;-1.52;100.00;102067.63;5033229;28;1030;-75
2021/12/22 06:37:31;;;;;;;;;;;;;;;-1.60;100.00;102064.16;5050687;28;772;-75
2021/12/22 06:39:58;;;;;;;;;;;;;;;-1.73;100.00;102066.03;5051095;28;1011;-76
2021/12/22 06:42:24;;;;;;;;;;;;;;;-1.86;100.00;102070.56;5051150;28;1985;-74
2021/12/22 06:44:50;;;;;;;;;;;;;;;-2.00;100.00;102076.00;5051417;28;785;-74
2021/12/22 06:47:17;;;;;;;;;;;;;;;-2.12;100.00;102073.44;5050679;28;855;-75
2021/12/22 06:49:43;;;;;;;;;;;;;;;-2.19;100.00;102073.47;5051307;28;1041;-75
2021/12/22 06:52:09;;;;;;;;;;;;;;;-2.24;100.00;102079.72;5050789;28;1338;-76
2021/12/22 06:54:37;;;;;;;;;;;;;;;-2.33;100.00;102080.66;5032731;28;1260;-74
2021/12/22 06:57:03;;;;;;;;;;;;;;;-2.42;100.00;102078.94;5050183;28;1109;-74
2021/12/22 06:59:31;;;;;;;;;;;;;;;-2.46;100.00;102076.28;5032832;28;1138;-76
2021/12/22 07:01:58;;;;;;;;;;;;;;;-2.55;100.00;102077.25;5050751;28;1906;-77
2021/12/22 07:04:24;;;;;;;;;;;;;;;-2.60;100.00;102079.03;5051114;28;1404;-75
2021/12/22 07:06:51;;;;;;;;;;;;;;;-2.66;100.00;102081.72;5050968;28;1137;-76
2021/12/22 07:09:17;;;;;;;;;;;;;;;-2.75;100.00;102075.56;5050984;28;979;-76
2021/12/22 07:11:44;;;;;;;;;;;;;;;-2.78;100.00;102085.31;5050728;28;979;-76
2021/12/22 07:14:11;;;;;;;;;;;;;;;-2.84;100.00;102080.03;5032989;28;1391;-74
2021/12/22 07:16:38;;;;;;;;;;;;;;;-2.90;100.00;102079.16;5050647;28;963;-76
2021/12/22 07:19:04;;;;;;;;;;;;;;;-2.97;100.00;102080.06;5050941;28;982;-76
2021/12/22 07:21:31;;;;;;;;;;;;;;;-3.02;100.00;102076.53;5050788;28;1910;-76
2021/12/22 07:23:57;;;;;;;;;;;;;;;-3.06;100.00;102080.09;5036386;28;1273;-77
2021/12/22 07:26:23;;;;;;;;;;;;;;;-3.05;100.00;102077.44;5054331;28;915;-76
2021/12/22 07:28:51;;;;;;;;;;;;;;;-3.08;100.00;102074.78;5054644;28;991;-75
2021/12/22 07:31:17;;;;;;;;;;;;;;;-3.08;100.00;102076.56;5053988;28;986;-75
2021/12/22 07:33:47;;;;;;;;;;;;;;;-3.08;100.00;102077.44;5054432;28;1417;-76
2021/12/22 07:36:13;;;;;;;;;;;;;;;-3.09;100.00;102082.75;5053936;28;1114;-75
2021/12/22 07:38:43;;;;;;;;;;;;;;;-3.09;100.00;102080.97;5036612;28;812;-74
2021/12/22 07:41:10;;;;;;;;;;;;;;;-3.05;100.00;102085.41;5054138;28;1973;-75
2021/12/22 07:43:37;;;;;;;;;;;;;;;-2.94;100.00;102087.13;5036103;28;1340;-76
2021/12/22 07:46:05;;;;;;;;;;;;;;;-2.81;100.00;102082.66;5049707;28;1171;-76
2021/12/22 07:48:31;;;;;;;;;;;;;;;-2.71;100.00;102087.06;5048128;28;1113;-76
2021/12/22 07:50:57;;;;;;;;;;;;;;;-2.64;100.00;102086.13;5044740;28;1205;-76
2021/12/22 07:53:24;;;;;;;;;;;;;;;-2.54;100.00;102087.88;5045419;28;1439;-76
2021/12/22 07:55:53;;;;;;;;;;;;;;;-2.40;100.00;102079.81;5039050;28;1338;-76
2021/12/22 07:58:20;;;;;;;;;;;;;;;-2.23;100.00;102078.81;5026422;28;1346;-75
2021/12/22 08:00:46;;;;;;;;;;;;;;;-2.09;100.00;102076.06;5045275;28;1251;-75
2021/12/22 08:03:14;;;;;;;;;;;;;;;-1.99;100.00;102074.22;5029934;28;1907;-73
2021/12/22 08:05:40;;;;;;;;;;;;;;;-1.92;100.00;102081.28;5053559;28;839;-74
2021/12/22 08:08:06;;;;;;;;;;;;;;;-1.85;100.00;102073.22;5036081;28;1019;-75
2021/12/22 08:10:32;;;;;;;;;;;;;;;-1.78;100.00;102071.38;5053801;28;843;-75
2021/12/22 08:12:59;;;;;;;;;;;;;;;-1.71;100.00;102077.53;5053650;28;1336;-75
2021/12/22 08:15:25;;;;;;;;;;;;;;;-1.63;100.00;102080.16;5053380;28;1140;-74
2021/12/22 08:17:52;;;;;;;;;;;;;;;-1.56;100.00;102073.88;5035647;28;830;-75
2021/12/22 08:20:21;;;;;;;;;;;;;;;-1.33;100.00;102084.31;5053629;28;1186;-75
2021/12/22 08:22:47;;;;;;;;;;;;;;;-1.07;100.00;102080.47;5056235;28;1902;-75
2021/12/22 08:25:13;;;;;;;;;;;;;;;-0.78;100.00;102072.13;5033560;28;1030;-75
2021/12/22 08:27:40;;;;;;;;;;;;;;;-0.44;100.00;102073.47;5032599;28;1105;-75
2021/12/22 08:30:07;;;;;;;;;;;;;;;-0.29;100.00;102073.28;5031361;28;1018;-74
2021/12/22 08:32:34;;;;;;;;;;;;;;;-0.10;100.00;102065.00;5033258;28;1501;-75
2021/12/22 08:35:03;;;;;;;;;;;;;;;0.06;100.00;102066.50;5014021;28;1070;-75
2021/12/22 08:40:17;;;;;;;;;;;;;;;0.48;100.00;102064.03;5035758;28;1093;-74
2021/12/22 08:42:44;;;;;;;;;;;;;;;0.49;100.00;102062.22;5052212;28;1979;-74
2021/12/22 08:45:10;;;;;;;;;;;;;;;0.48;100.00;102061.38;5052577;28;1023;-75
2021/12/22 08:47:37;;;;;;;;;;;;;;;0.23;100.00;102058.22;5052157;28;698;-74
2021/12/22 08:50:04;;;;;;;;;;;;;;;-0.03;100.00;102062.22;5019939;28;1334;-74
2021/12/22 08:52:31;;;;;;;;;;;;;;;0.03;100.00;102063.91;5014707;28;1341;-74
2021/12/22 08:54:58;;;;;;;;;;;;;;;0.08;100.00;102062.03;4998673;28;1247;-74
2021/12/22 08:57:24;;;;;;;;;;;;;;;0.19;100.00;102067.22;5015769;28;900;-74
2021/12/22 08:59:51;;;;;;;;;;;;;;;0.33;100.00;102058.94;5018598;28;2038;-74
2021/12/22 09:02:17;;;;;;;;;;;;;;;0.36;100.00;102064.25;5048216;28;1930;-76
2021/12/22 09:04:44;;;;;;;;;;;;;;;0.32;100.00;102063.44;5026571;28;1567;-75
2021/12/22 09:07:10;;;;;;;;;;;;;;;0.26;100.00;102054.63;5040752;28;1198;-74
2021/12/22 09:09:38;;;;;;;;;;;;;;;0.15;100.00;102055.69;5052309;28;974;-73
2021/12/22 09:12:05;;;;;;;;;;;;;;;0.28;100.00;102069.72;5052330;28;974;-73
2021/12/22 09:14:31;;;;;;;;;;;;;;;0.38;100.00;102062.44;5052138;28;1358;-73
2021/12/22 09:16:57;;;;;;;;;;;;;;;0.64;100.00;102053.06;5051404;28;1083;-73
2021/12/22 09:19:24;;;;;;;;;;;;;;;0.69;100.00;102050.31;5041967;28;1142;-75
2021/12/22 09:21:51;;;;;;;;;;;;;;;0.74;100.00;102057.31;5031943;28;1975;-74
2021/12/22 09:24:18;;;;;;;;;;;;;;;0.90;100.00;102043.69;5031901;28;1300;-74
2021/12/22 09:26:45;;;;;;;;;;;;;;;1.03;100.00;102047.88;5031305;28;784;-74
2021/12/22 09:29:12;;;;;;;;;;;;;;;1.30;100.00;102045.53;5031673;28;975;-73
2021/12/22 09:31:39;;;;;;;;;;;;;;;1.38;100.00;102040.88;5014030;28;963;-74
2021/12/22 09:34:05;;;;;;;;;;;;;;;1.56;100.00;102039.56;5013789;28;1279;-74
2021/12/22 09:36:32;;;;;;;;;;;;;;;1.61;100.00;102036.81;5031042;28;982;-73
2021/12/22 09:38:58;;;;;;;;;;;;;;;1.74;100.00;102040.06;5031207;28;844;-74
2021/12/22 09:41:25;;;;;;;;;;;;;;;1.83;100.00;102035.41;5030918;28;1965;-72
2021/12/22 09:43:55;;;;;;;;;;;;;;;1.96;100.00;102027.94;5030755;28;1320;-72
2021/12/22 09:46:23;;;;;;;;;;;;;;;1.99;100.00;102025.19;5012379;28;1522;-73
2021/12/22 09:48:53;;;;;;;;;;;;;;;1.95;100.00;102027.97;5030672;28;1025;-73
2021/12/22 09:54:05;;;;;;;;;;;;;;;2.01;100.00;102026.03;5030696;28;1385;-74
2021/12/22 09:56:33;;;;;;;;;;;;;;;2.01;100.00;102020.66;4996244;28;1188;-75
2021/12/22 09:59:01;;;;;;;;;;;;;;;1.95;100.00;102011.91;5030934;28;785;-75
2021/12/22 10:01:29;;;;;;;;;;;;;;;1.78;100.00;102007.84;5012410;28;1977;-75
2021/12/22 10:03:57;;;;;;;;;;;;;;;1.58;100.00;102013.66;5030069;28;1395;-73
2021/12/22 10:06:24;;;;;;;;;;;;;;;1.44;100.00;102014.00;5030047;28;994;-75
2021/12/22 10:08:52;;;;;;;;;;;;;;;1.39;100.00;102015.91;5030221;28;1015;-73
2021/12/22 10:11:18;;;;;;;;;;;;;;;1.42;100.00;102018.50;5030176;28;880;-74
2021/12/22 10:13:44;;;;;;;;;;;;;;;1.46;100.00;102012.16;5030550;28;1286;-74
2021/12/22 10:16:13;;;;;;;;;;;;;;;1.46;100.00;102013.97;5029983;28;848;-74
2021/12/22 10:18:40;;;;;;;;;;;;;;;1.37;100.00;102015.03;4996279;28;1498;-72
2021/12/22 10:21:10;;;;;;;;;;;;;;;1.37;100.00;102011.50;5030074;28;955;-74
2021/12/22 10:23:37;;;;;;;;;;;;;;;1.38;100.00;102019.47;5029999;28;1979;-74
2021/12/22 10:26:04;;;;;;;;;;;;;;;1.24;100.00;102011.72;5028620;28;1152;-74
2021/12/22 10:28:32;;;;;;;;;;;;;;;1.22;100.00;102012.72;5029058;28;912;-74
2021/12/22 10:31:01;;;;;;;;;;;;;;;1.12;100.00;102017.34;5030222;28;987;-74
2021/12/22 10:33:30;;;;;;;;;;;;;;;1.08;100.00;102003.19;5012293;28;1408;-72
2021/12/22 10:35:57;;;;;;;;;;;;;;;0.90;100.00;102001.75;5011966;28;1512;-74
2021/12/22 10:38:24;;;;;;;;;;;;;;;0.91;100.00;102002.63;5030138;28;769;-74
2021/12/22 10:40:52;;;;;;;;;;;;;;;1.06;100.00;102002.31;5030204;28;967;-75
2021/12/22 10:43:20;;;;;;;;;;;;;;;1.02;100.00;101994.38;5030387;28;1910;-74
2021/12/22 10:45:47;;;;;;;;;;;;;;;1.00;100.00;101991.75;5028688;28;827;-74
2021/12/22 10:51:00;;;;;;;;;;;;;;;0.98;100.00;101994.47;5030310;28;927;-74
2021/12/22 10:53:27;;;;;;;;;;;;;;;1.08;100.00;101994.25;5030380;28;1381;-74
2021/12/22 10:55:54;;;;;;;;;;;;;;;1.19;100.00;101994.94;5038144;28;1147;-75
2021/12/22 10:58:23;;;;;;;;;;;;;;;1.29;100.00;101998.28;5052879;28;915;-74
2021/12/22 11:01:11;;;;;;;;;;;;;;;1.33;100.00;101990.13;5054107;28;1164;-74
2021/12/22 11:03:44;;;;;;;;;;;;;;;1.34;100.00;101985.69;5036271;28;1963;-75
2021/12/22 11:06:24;;;;;;;;;;;;;;;1.44;100.00;101987.25;5053318;28;1080;-74
2021/12/22 11:08:55;;;;;;;;;;;;;;;1.59;100.00;101974.38;5052902;28;1473;-74
2021/12/22 11:11:22;;;;;;;;;;;;;;;1.62;100.00;101975.22;5053469;28;1057;-73
2021/12/22 11:14:01;;;;;;;;;;;;;;;1.59;100.00;101982.41;5053245;28;1367;-74
2021/12/22 11:16:27;;;;;;;;;;;;;;;1.47;100.00;101971.09;5053482;28;994;-74
2021/12/22 11:18:53;;;;;;;;;;;;;;;1.46;100.00;101972.00;5035887;28;1164;-74
2021/12/22 11:21:28;;;;;;;;;;;;;;;1.41;100.00;101971.22;5053409;28;1015;-74
2021/12/22 11:23:54;;;;;;;;;;;;;;;1.33;100.00;101965.19;5035395;28;1887;-74
2021/12/22 11:26:20;;;;;;;;;;;;;;;1.33;100.00;101967.84;5019063;28;1235;-74
2021/12/22 11:28:47;;;;;;;;;;;;;;;1.23;100.00;101968.97;5053134;28;785;-73
2021/12/22 11:31:13;;;;;;;;;;;;;;;1.25;100.00;101956.44;5015014;28;1200;-74
2021/12/22 11:33:40;;;;;;;;;;;;;;;1.17;100.00;101962.84;5029339;28;1302;-72
2021/12/22 11:36:08;;;;;;;;;;;;;;;1.27;100.00;101978.69;5052677;28;1089;-73
2021/12/22 11:38:35;;;;;;;;;;;;;;;1.50;100.00;101975.50;5053190;28;959;-73
2021/12/22 11:41:11;;;;;;;;;;;;;;;1.78;100.00;101964.13;5053367;28;776;-72
2021/12/22 11:43:38;;;;;;;;;;;;;;;2.06;100.00;101963.41;5053381;28;1910;-71
2021/12/22 11:46:05;;;;;;;;;;;;;;;2.13;100.00;101960.53;5052694;28;832;-74
2021/12/22 11:48:32;;;;;;;;;;;;;;;2.20;100.00;101955.91;5052970;28;982;-74
2021/12/22 11:50:58;;;;;;;;;;;;;;;2.23;100.00;101947.81;5052933;28;966;-73
2021/12/22 11:53:25;;;;;;;;;;;;;;;2.15;100.00;101956.03;5053003;28;1347;-74
2021/12/22 11:55:55;;;;;;;;;;;;;;;2.14;100.00;101942.69;5051472;28;1182;-73
2021/12/22 11:58:22;;;;;;;;;;;;;;;2.12;100.00;101942.69;5052603;28;1123;-73
2021/12/22 12:00:59;;;;;;;;;;;;;;;2.20;100.00;101942.50;5052964;28;887;-73
2021/12/22 12:03:28;;;;;;;;;;;;;;;1.95;100.00;101937.81;5052974;28;1910;-74
2021/12/22 12:06:02;;;;;;;;;;;;;;;2.01;100.00;101945.66;5051181;28;981;-76
2021/12/22 12:08:33;;;;;;;;;;;;;;;2.01;100.00;101934.09;4993977;28;1208;-72
2021/12/22 12:11:01;;;;;;;;;;;;;;;1.92;100.00;101931.66;5032139;28;1304;-72
2021/12/22 12:13:40;;;;;;;;;;;;;;;1.90;100.00;101941.50;5052825;28;1433;-73
2021/12/22 12:21:49;;;;;;;;;;;;;;;1.70;100.00;101921.47;5021444;28;1491;-72
2021/12/22 12:24:34;;;;;;;;;;;;;;;1.66;100.00;101922.47;5052055;28;1914;-72
2021/12/22 12:27:22;;;;;;;;;;;;;;;1.66;100.00;101930.50;5052945;28;1537;-73
2021/12/22 12:29:55;;;;;;;;;;;;;;;1.69;100.00;101921.53;5052059;28;1101;-72
2021/12/22 12:32:36;;;;;;;;;;;;;;;1.66;100.00;101925.16;5051328;28;1557;-72
2021/12/22 12:35:22;;;;;;;;;;;;;;;1.70;100.00;101921.47;5033386;28;1121;-73
2021/12/22 12:38:03;;;;;;;;;;;;;;;1.60;100.00;101918.13;5047251;28;1566;-71
2021/12/22 12:40:53;;;;;;;;;;;;;;;1.44;100.00;101911.41;5033629;28;1517;-73
2021/12/22 12:43:41;;;;;;;;;;;;;;;1.43;100.00;101915.91;5050613;28;1910;-71
2021/12/22 12:46:28;;;;;;;;;;;;;;;1.37;100.00;101907.13;5013736;28;1102;-73
2021/12/22 12:48:56;;;;;;;;;;;;;;;1.38;100.00;101908.88;5047298;28;1442;-73
2021/12/22 12:51:24;;;;;;;;;;;;;;;1.42;100.00;101906.09;5051009;28;1498;-73
2021/12/22 12:53:51;;;;;;;;;;;;;;;1.36;100.00;101903.56;5049360;28;2163;-73
2021/12/22 12:56:19;;;;;;;;;;;;;;;1.33;100.00;101895.63;5046263;28;1264;-74
2021/12/22 12:58:53;;;;;;;;;;;;;;;1.28;100.00;101900.19;5051236;28;950;-72
2021/12/22 13:01:39;;;;;;;;;;;;;;;1.17;100.00;101903.13;5037925;28;1558;-74
2021/12/22 13:04:18;;;;;;;;;;;;;;;1.07;100.00;101893.53;5039664;28;1919;-72
2021/12/22 13:06:44;;;;;;;;;;;;;;;0.97;100.00;101899.09;5044989;28;1679;-73